Time;durP1;ratioP1;P1;durP2;ratioP2;P2;SDS_P1;SDS_P2;PMS_P1;PMS_P2;Temp;Humidity;BMP_temperature;BMP_pressure;BME280_temperature;BME280_humidity;BME280_pressure;Samples;Min_cycle;Max_cycle;Signal;HPM_P1;HPM_P2
2023/09/08 00:02:27;;;;;;;16.38;12.52;;;;;;;19.46;100.00;101658.88;5033829;28;20037;-91
2023/09/08 00:04:56;;;;;;;23.35;12.23;;;;;;;19.44;100.00;101654.59;5024238;28;20069;-90
2023/09/08 00:07:22;;;;;;;15.82;12.77;;;;;;;19.40;100.00;101654.84;5045691;28;20034;-89
2023/09/08 00:09:48;;;;;;;15.23;13.07;;;;;;;19.39;100.00;101650.44;5024782;28;20586;-91
2023/09/08 00:12:17;;;;;;;17.10;12.68;;;;;;;19.31;100.00;101658.38;5020849;28;20132;-88
2023/09/08 00:14:44;;;;;;;20.08;12.25;;;;;;;19.26;100.00;101655.19;5010344;28;20033;-89
2023/09/08 00:17:10;;;;;;;14.13;12.07;;;;;;;19.27;100.00;101654.19;5019871;28;20054;-89
2023/09/08 00:19:36;;;;;;;15.43;11.60;;;;;;;19.19;100.00;101659.44;5021582;28;20041;-91
2023/09/08 00:22:05;;;;;;;15.77;13.20;;;;;;;19.13;100.00;101654.56;4997587;28;20908;-91
2023/09/08 00:24:31;;;;;;;14.23;11.15;;;;;;;19.06;100.00;101661.47;5021195;28;20046;-90
2023/09/08 00:26:57;;;;;;;16.15;12.27;;;;;;;19.06;100.00;101662.34;5013252;28;20570;-90
2023/09/08 00:29:25;;;;;;;16.05;12.52;;;;;;;19.01;100.00;101659.19;5036158;28;20116;-88
2023/09/08 00:31:51;;;;;;;20.63;13.52;;;;;;;18.98;100.00;101664.00;5015080;28;20029;-90
2023/09/08 00:34:17;;;;;;;18.08;13.52;;;;;;;18.99;100.00;101661.16;5017628;28;20549;-90
2023/09/08 00:36:42;;;;;;;13.57;12.10;;;;;;;18.88;100.00;101662.09;5029252;28;20116;-88
2023/09/08 00:39:09;;;;;;;17.05;13.32;;;;;;;18.87;100.00;101659.50;5001286;28;20149;-92
2023/09/08 00:41:35;;;;;;;18.77;13.73;;;;;;;18.86;100.00;101655.94;5016983;28;20509;-89
2023/09/08 00:44:00;;;;;;;22.48;14.55;;;;;;;18.82;100.00;101665.28;5006912;28;20048;-88
2023/09/08 00:46:27;;;;;;;19.23;13.43;;;;;;;18.78;100.00;101657.59;5001224;28;20034;-88
2023/09/08 00:48:55;;;;;;;17.45;14.68;;;;;;;18.68;100.00;101662.03;5037361;28;20038;-90
2023/09/08 00:51:22;;;;;;;17.50;13.88;;;;;;;18.66;100.00;101674.81;5032113;28;20038;-88
2023/09/08 00:53:49;;;;;;;20.00;13.13;;;;;;;18.59;100.00;101663.66;5001767;28;20030;-88
2023/09/08 00:56:16;;;;;;;17.00;13.13;;;;;;;18.52;100.00;101662.44;5018146;28;20037;-90
2023/09/08 00:58:42;;;;;;;17.52;13.88;;;;;;;18.55;100.00;101667.59;5005775;28;20104;-89
2023/09/08 01:01:07;;;;;;;15.23;13.55;;;;;;;18.50;100.00;101662.59;5034914;28;20029;-90
2023/09/08 01:03:33;;;;;;;15.27;13.52;;;;;;;18.46;100.00;101658.41;5020906;28;20042;-91
2023/09/08 01:06:01;;;;;;;16.13;11.82;;;;;;;18.40;100.00;101658.09;5022646;28;20798;-89
2023/09/08 01:08:27;;;;;;;15.85;12.70;;;;;;;18.37;100.00;101664.59;5022768;28;20128;-88
2023/09/08 01:10:54;;;;;;;13.63;12.23;;;;;;;18.31;100.00;101654.28;5005774;28;20076;-91
2023/09/08 01:13:21;;;;;;;16.48;12.25;;;;;;;18.24;100.00;101664.75;5014224;28;20095;-89
2023/09/08 01:15:48;;;;;;;21.95;14.48;;;;;;;18.29;100.00;101662.53;5003028;28;20486;-91
2023/09/08 01:18:16;;;;;;;17.30;13.85;;;;;;;18.28;100.00;101659.97;5040128;28;20053;-90
2023/09/08 01:21:15;;;;;;;17.83;14.00;;;;;;;18.24;100.00;101655.81;5007495;28;20030;-91
2023/09/08 01:23:53;;;;;;;23.25;13.85;;;;;;;18.24;100.00;101656.66;4998651;28;20046;-89
2023/09/08 01:26:26;;;;;;;19.60;14.60;;;;;;;18.17;100.00;101655.44;5035621;28;20041;-89
2023/09/08 01:28:55;;;;;;;19.40;14.50;;;;;;;18.17;100.00;101658.13;5039755;28;20033;-88
2023/09/08 01:31:25;;;;;;;19.27;14.07;;;;;;;18.08;100.00;101653.50;5022139;28;20029;-92
2023/09/08 01:33:51;;;;;;;16.98;13.45;;;;;;;18.08;100.00;101662.47;5033897;28;20029;-88
2023/09/08 01:36:17;;;;;;;24.05;13.98;;;;;;;18.02;100.00;101656.69;5021693;28;20030;-90
2023/09/08 01:38:42;;;;;;;16.25;13.55;;;;;;;18.07;100.00;101649.06;5041658;28;20041;-87
2023/09/08 01:41:10;;;;;;;17.55;13.48;;;;;;;18.10;100.00;101647.00;5023426;28;20108;-90
2023/09/08 01:43:35;;;;;;;17.15;13.90;;;;;;;18.10;100.00;101646.13;5040706;28;20045;-90
2023/09/08 01:46:01;;;;;;;17.20;13.70;;;;;;;18.07;100.00;101652.66;5043189;28;20037;-91
2023/09/08 01:48:27;;;;;;;17.60;13.52;;;;;;;18.05;100.00;101649.22;5019695;28;20033;-88
2023/09/08 01:50:53;;;;;;;20.25;15.45;;;;;;;18.02;100.00;101641.38;5015757;28;21008;-89
2023/09/08 01:53:19;;;;;;;23.98;15.13;;;;;;;17.96;100.00;101651.81;5022036;28;20070;-89
2023/09/08 01:55:45;;;;;;;16.38;13.55;;;;;;;17.81;100.00;101641.25;5006336;28;20502;-91
2023/09/08 01:58:11;;;;;;;17.63;13.50;;;;;;;17.88;100.00;101632.69;5008054;28;20042;-92
2023/09/08 02:00:37;;;;;;;18.50;14.18;;;;;;;17.84;100.00;101634.78;5005571;28;20076;-88
2023/09/08 02:03:03;;;;;;;19.17;14.65;;;;;;;17.69;100.00;101646.78;5036791;28;20052;-91
2023/09/08 02:05:31;;;;;;;20.38;14.45;;;;;;;17.64;100.00;101649.00;5017608;28;20030;-89
2023/09/08 02:07:57;;;;;;;20.73;17.10;;;;;;;17.68;100.00;101653.16;5012627;28;20042;-89
2023/09/08 02:10:26;;;;;;;18.17;14.35;;;;;;;17.71;100.00;101639.41;5016868;28;20025;-90
2023/09/08 02:12:52;;;;;;;19.60;14.73;;;;;;;17.71;100.00;101651.06;5035430;28;20915;-89
2023/09/08 02:15:18;;;;;;;17.60;14.18;;;;;;;17.66;100.00;101647.00;5027026;28;20026;-89
2023/09/08 02:17:44;;;;;;;20.95;15.40;;;;;;;17.65;100.00;101639.91;5029127;28;20113;-92
2023/09/08 02:20:10;;;;;;;19.33;14.20;;;;;;;17.60;100.00;101640.28;5020937;28;20137;-90
2023/09/08 02:22:36;;;;;;;20.40;14.90;;;;;;;17.60;100.00;101648.38;4995115;28;20103;-89
2023/09/08 02:25:01;;;;;;;23.92;16.63;;;;;;;17.61;100.00;101645.53;5021000;28;20028;-91
2023/09/08 02:27:27;;;;;;;18.30;15.40;;;;;;;17.62;100.00;101641.03;5005262;28;20598;-90
2023/09/08 02:29:56;;;;;;;23.00;14.77;;;;;;;17.56;100.00;101645.06;5006082;28;20045;-91
2023/09/08 02:32:22;;;;;;;20.95;14.98;;;;;;;17.57;100.00;101645.91;5020986;28;20849;-88
2023/09/08 02:34:49;;;;;;;20.85;13.50;;;;;;;17.54;100.00;101633.53;5020572;28;20053;-91
2023/09/08 02:37:15;;;;;;;20.73;14.80;;;;;;;17.50;100.00;101642.84;5021799;28;20030;-88
2023/09/08 02:39:40;;;;;;;18.60;14.73;;;;;;;17.44;100.00;101637.09;5028761;28;20729;-90
2023/09/08 02:42:06;;;;;;;17.98;14.38;;;;;;;17.41;100.00;101640.88;5033054;28;20057;-92
2023/09/08 02:44:32;;;;;;;19.65;14.23;;;;;;;17.44;100.00;101639.78;5014153;28;20029;-90
2023/09/08 02:46:58;;;;;;;19.58;15.43;;;;;;;17.42;100.00;101642.63;5012424;28;20041;-91
2023/09/08 02:49:24;;;;;;;18.60;15.20;;;;;;;17.42;100.00;101642.63;5043602;28;20037;-89
2023/09/08 02:51:50;;;;;;;21.20;17.13;;;;;;;17.42;100.00;101639.94;4996434;28;20189;-91
2023/09/08 02:54:15;;;;;;;19.55;15.38;;;;;;;17.38;100.00;101635.75;5020906;28;20033;-93
2023/09/08 02:56:41;;;;;;;16.85;11.30;;;;;;;17.29;100.00;101640.03;5042277;28;20683;-88
2023/09/08 02:59:07;;;;;;;21.95;13.20;;;;;;;17.25;100.00;101637.69;5041603;28;20753;-88
2023/09/08 03:01:33;;;;;;;21.20;12.98;;;;;;;17.27;100.00;101641.09;5020193;28;20057;-89
2023/09/08 03:03:59;;;;;;;18.33;14.23;;;;;;;17.24;100.00;101641.38;5041371;28;20549;-92
2023/09/08 03:06:29;;;;;;;22.80;15.85;;;;;;;17.22;100.00;101638.81;5022286;28;20230;-89
2023/09/08 03:08:58;;;;;;;19.60;15.30;;;;;;;17.25;100.00;101643.09;4999868;28;20025;-88
2023/09/08 03:11:24;;;;;;;21.63;14.40;;;;;;;17.27;100.00;101646.50;5007085;28;20661;-88
2023/09/08 03:13:50;;;;;;;22.17;15.07;;;;;;;17.22;100.00;101637.91;5008184;28;20030;-89
2023/09/08 03:16:16;;;;;;;15.93;12.55;;;;;;;17.12;100.00;101643.19;5040187;28;20131;-90
2023/09/08 03:18:42;;;;;;;22.02;16.00;;;;;;;17.02;100.00;101637.66;5023178;28;20573;-88
2023/09/08 03:21:11;;;;;;;24.45;17.58;;;;;;;17.03;100.00;101644.78;5021001;28;20038;-88
2023/09/08 03:23:42;;;;;;;25.00;15.90;;;;;;;17.03;100.00;101646.59;5024425;28;20053;-88
2023/09/08 03:26:08;;;;;;;20.52;16.92;;;;;;;17.12;100.00;101639.63;5022285;28;20042;-91
2023/09/08 03:28:35;;;;;;;24.40;16.30;;;;;;;17.10;100.00;101634.34;5019463;28;20049;-88
2023/09/08 03:31:02;;;;;;;20.15;16.23;;;;;;;17.07;100.00;101637.31;4994672;28;20522;-89
2023/09/08 03:33:29;;;;;;;25.50;18.00;;;;;;;17.08;100.00;101639.88;5023392;28;20500;-88
2023/09/08 03:35:58;;;;;;;25.77;19.02;;;;;;;17.00;100.00;101636.06;5002744;28;20133;-92
2023/09/08 03:38:24;;;;;;;20.55;14.60;;;;;;;16.92;100.00;101643.88;5017753;28;20112;-87
2023/09/08 03:40:51;;;;;;;21.80;16.33;;;;;;;16.90;100.00;101640.44;5020257;28;20076;-91
2023/09/08 03:43:17;;;;;;;27.23;17.38;;;;;;;16.97;100.00;101626.38;5010046;28;20037;-88
2023/09/08 03:45:47;;;;;;;20.48;15.00;;;;;;;16.96;100.00;101634.56;5033279;28;20029;-90
2023/09/08 03:48:15;;;;;;;23.98;16.23;;;;;;;16.91;100.00;101639.47;5000231;28;20095;-88
2023/09/08 03:50:45;;;;;;;26.75;17.27;;;;;;;16.92;100.00;101641.16;5021823;28;20045;-91
2023/09/08 03:53:11;;;;;;;24.50;17.52;;;;;;;16.92;100.00;101636.66;5042398;28;20045;-89
2023/09/08 03:55:36;;;;;;;23.13;16.08;;;;;;;16.80;100.00;101640.28;5001930;28;20146;-89
2023/09/08 03:58:02;;;;;;;19.95;15.73;;;;;;;16.81;100.00;101642.84;5040242;28;20025;-89
2023/09/08 04:00:28;;;;;;;13.48;9.73;;;;;;;16.72;100.00;101638.19;5002249;28;20037;-89
2023/09/08 04:02:54;;;;;;;19.73;13.30;;;;;;;16.74;100.00;101641.63;5047436;28;20040;-89
2023/09/08 04:05:20;;;;;;;22.42;14.20;;;;;;;16.67;100.00;101643.03;5002276;28;20041;-90
2023/09/08 04:07:46;;;;;;;18.30;14.63;;;;;;;16.69;100.00;101648.31;5022510;28;20044;-91
2023/09/08 04:10:12;;;;;;;22.33;15.38;;;;;;;16.73;100.00;101639.91;5017451;28;20438;-89
2023/09/08 04:12:41;;;;;;;17.30;13.60;;;;;;;16.62;100.00;101645.22;5015702;28;20037;-89
2023/09/08 04:15:08;;;;;;;20.05;12.55;;;;;;;16.52;100.00;101636.13;5016707;28;20049;-90
2023/09/08 04:17:35;;;;;;;21.42;14.68;;;;;;;16.48;100.00;101637.34;5004812;28;20037;-90
2023/09/08 04:20:05;;;;;;;22.90;13.88;;;;;;;16.56;100.00;101635.75;4996064;28;20042;-91
2023/09/08 04:22:31;;;;;;;22.67;16.13;;;;;;;16.59;100.00;101640.06;5002664;28;20046;-88
2023/09/08 04:24:58;;;;;;;23.95;15.52;;;;;;;16.54;100.00;101639.56;5007982;28;20055;-90
2023/09/08 04:27:27;;;;;;;22.80;15.95;;;;;;;16.51;100.00;101637.94;5032154;28;20037;-92
2023/09/08 04:29:56;;;;;;;23.08;16.25;;;;;;;16.49;100.00;101642.59;5011298;28;20033;-88
2023/09/08 04:32:22;;;;;;;26.38;17.20;;;;;;;16.54;100.00;101631.47;5025458;28;20072;-89
2023/09/08 04:34:49;;;;;;;22.85;15.73;;;;;;;16.46;100.00;101639.25;5022400;28;22326;-89
2023/09/08 04:37:15;;;;;;;26.50;18.60;;;;;;;16.52;100.00;101633.44;5009701;28;21329;-88
2023/09/08 04:39:41;;;;;;;25.35;18.42;;;;;;;16.54;100.00;101635.03;5006511;28;20057;-88
2023/09/08 04:42:07;;;;;;;27.20;17.27;;;;;;;16.51;100.00;101637.09;5038658;28;20092;-88
2023/09/08 04:44:33;;;;;;;80.05;30.65;;;;;;;16.39;100.00;101633.50;5002904;28;20456;-89
2023/09/08 04:46:59;;;;;;;35.25;21.30;;;;;;;16.44;100.00;101628.63;5024105;28;20148;-90
2023/09/08 04:49:25;;;;;;;38.97;21.85;;;;;;;16.41;100.00;101636.06;5023586;28;20117;-89
2023/09/08 04:51:51;;;;;;;31.17;18.92;;;;;;;16.37;100.00;101627.38;5022085;28;20037;-91
2023/09/08 04:54:19;;;;;;;25.85;18.27;;;;;;;16.43;100.00;101628.75;5027489;28;20026;-90
2023/09/08 04:56:46;;;;;;;28.73;18.65;;;;;;;16.42;100.00;101632.41;5008480;28;20038;-90
2023/09/08 04:59:13;;;;;;;26.42;18.38;;;;;;;16.38;100.00;101629.09;5014448;28;20037;-90
2023/09/08 05:01:40;;;;;;;27.13;17.60;;;;;;;16.44;100.00;101630.47;5045957;28;20041;-88
2023/09/08 05:04:11;;;;;;;27.38;19.33;;;;;;;16.52;100.00;101634.31;5019645;28;20048;-88
2023/09/08 05:06:37;;;;;;;29.08;18.63;;;;;;;16.55;100.00;101635.88;5022497;28;20045;-89
2023/09/08 05:09:06;;;;;;;27.02;18.85;;;;;;;16.53;100.00;101635.16;5012555;28;20037;-89
2023/09/08 05:11:32;;;;;;;29.15;18.73;;;;;;;16.49;100.00;101637.22;5021314;28;20029;-90
2023/09/08 05:14:00;;;;;;;32.88;20.52;;;;;;;16.55;100.00;101634.03;5045698;28;20053;-88
2023/09/08 05:16:36;;;;;;;28.10;19.25;;;;;;;16.62;100.00;101638.97;5023367;28;20105;-87
2023/09/08 05:19:04;;;;;;;25.50;19.08;;;;;;;16.57;100.00;101634.81;5019836;28;20152;-89
2023/09/08 05:21:31;;;;;;;28.05;17.08;;;;;;;16.62;100.00;101639.84;5025366;28;20037;-88
2023/09/08 05:23:57;;;;;;;26.40;18.25;;;;;;;16.57;100.00;101637.50;4998611;28;20099;-88
2023/09/08 05:26:29;;;;;;;24.33;17.48;;;;;;;16.62;100.00;101634.47;5006260;28;20179;-91
2023/09/08 05:28:58;;;;;;;26.45;18.80;;;;;;;16.65;100.00;101636.91;5027464;28;20045;-89
2023/09/08 05:31:27;;;;;;;25.27;18.15;;;;;;;16.71;100.00;101635.56;5012075;28;20025;-90
2023/09/08 05:33:54;;;;;;;27.48;19.02;;;;;;;16.78;100.00;101644.94;5045387;28;20040;-91
2023/09/08 05:36:19;;;;;;;26.77;19.48;;;;;;;16.82;100.00;101646.44;5022943;28;20038;-88
2023/09/08 05:38:45;;;;;;;28.63;19.10;;;;;;;16.78;100.00;101642.25;5012461;28;20395;-88
2023/09/08 05:41:11;;;;;;;26.70;19.75;;;;;;;16.80;100.00;101645.69;5026531;28;20033;-91
2023/09/08 05:43:37;;;;;;;26.80;20.75;;;;;;;16.83;100.00;101645.44;5041743;28;20045;-89
2023/09/08 05:46:03;;;;;;;25.52;19.60;;;;;;;16.91;100.00;101642.16;5023903;28;20549;-89
2023/09/08 05:48:30;;;;;;;30.85;22.58;;;;;;;16.94;100.00;101642.78;5010926;28;20036;-88
2023/09/08 05:50:57;;;;;;;29.13;20.67;;;;;;;16.97;100.00;101645.25;5005756;28;20123;-90
2023/09/08 05:53:24;;;;;;;30.40;20.88;;;;;;;17.00;100.00;101649.53;5023930;28;20089;-88
2023/09/08 05:55:50;;;;;;;29.27;20.92;;;;;;;17.01;100.00;101646.69;5010122;28;20037;-88
2023/09/08 05:58:15;;;;;;;24.75;20.02;;;;;;;17.09;100.00;101646.97;4999918;28;20541;-90
2023/09/08 06:00:42;;;;;;;27.92;20.98;;;;;;;17.21;100.00;101647.84;5011786;28;20045;-88
2023/09/08 06:03:07;;;;;;;27.23;19.33;;;;;;;17.26;100.00;101639.41;5034518;28;20152;-88
2023/09/08 06:05:36;;;;;;;25.80;20.00;;;;;;;17.32;100.00;101636.25;5039321;28;20113;-89
2023/09/08 06:08:01;;;;;;;30.25;21.65;;;;;;;17.33;100.00;101638.81;5028786;28;20033;-89
2023/09/08 06:10:30;;;;;;;38.45;23.13;;;;;;;17.38;100.00;101648.38;5021224;28;20033;-92
2023/09/08 06:12:56;;;;;;;30.80;21.02;;;;;;;17.51;100.00;101649.94;5054323;28;20064;-88
2023/09/08 06:15:28;;;;;;;32.53;23.17;;;;;;;17.58;100.00;101650.34;5019048;28;20029;-88
2023/09/08 06:17:54;;;;;;;26.35;20.70;;;;;;;17.69;100.00;101646.78;5026874;28;20049;-91
2023/09/08 06:20:19;;;;;;;30.73;23.02;;;;;;;17.77;100.00;101645.22;5015959;28;20393;-88
2023/09/08 06:22:45;;;;;;;29.20;20.67;;;;;;;17.81;100.00;101651.19;5026313;28;20042;-88
2023/09/08 06:25:11;;;;;;;24.55;20.23;;;;;;;17.91;100.00;101643.22;5007861;28;20038;-89
2023/09/08 06:27:37;;;;;;;34.17;22.45;;;;;;;18.03;100.00;101644.94;5008863;28;20047;-89
2023/09/08 06:30:03;;;;;;;35.78;24.65;;;;;;;18.13;100.00;101650.44;5048012;28;20029;-90
2023/09/08 06:32:29;;;;;;;26.67;20.92;;;;;;;18.29;100.00;101649.03;5014970;28;20089;-88
2023/09/08 06:34:56;;;;;;;27.40;19.52;;;;;;;18.48;100.00;101652.91;5017728;28;20567;-90
2023/09/08 06:37:22;;;;;;;26.95;20.05;;;;;;;18.72;100.00;101645.44;5014509;28;20041;-88
2023/09/08 06:39:48;;;;;;;29.45;20.88;;;;;;;18.84;100.00;101644.41;5022248;28;20029;-88
2023/09/08 06:42:14;;;;;;;30.38;20.98;;;;;;;19.11;100.00;101641.16;5029158;28;20084;-88
2023/09/08 06:44:49;;;;;;;24.83;18.83;;;;;;;19.42;100.00;101631.22;5026863;28;20040;-88
2023/09/08 06:47:15;;;;;;;27.67;18.35;;;;;;;19.73;100.00;101633.09;5030426;28;20030;-88
2023/09/08 06:49:41;;;;;;;28.85;20.77;;;;;;;19.98;100.00;101631.72;5026408;28;20049;-88
2023/09/08 06:52:07;;;;;;;26.50;20.02;;;;;;;20.21;100.00;101633.22;5030433;28;20064;-87
2023/09/08 06:54:36;;;;;;;22.92;17.65;;;;;;;20.47;100.00;101632.69;5046855;28;20536;-87
2023/09/08 06:57:04;;;;;;;26.55;16.52;;;;;;;20.79;100.00;101635.97;5028788;28;20061;-87
2023/09/08 06:59:31;;;;;;;21.52;15.55;;;;;;;21.05;100.00;101629.94;5016398;28;20037;-87
2023/09/08 07:01:57;;;;;;;20.27;13.80;;;;;;;21.23;100.00;101632.72;5010918;28;20511;-87
2023/09/08 07:04:31;;;;;;;17.90;13.82;;;;;;;21.48;100.00;101640.25;5010209;28;20041;-89
2023/09/08 07:06:57;;;;;;;17.10;12.48;;;;;;;21.66;100.00;101643.03;5021646;28;20314;-92
2023/09/08 07:09:27;;;;;;;19.90;12.88;;;;;;;21.84;100.00;101638.53;5029207;28;20030;-87
2023/09/08 07:11:52;;;;;;;14.98;12.05;;;;;;;22.01;100.00;101639.56;5038411;28;20202;-88
2023/09/08 07:14:21;;;;;;;16.40;11.40;;;;;;;22.02;100.00;101652.13;5021191;28;20229;-88
2023/09/08 07:16:47;;;;;;;17.70;13.27;;;;;;;22.17;100.00;101641.63;5032937;28;20037;-87
2023/09/08 07:19:13;;;;;;;17.30;12.15;;;;;;;22.22;100.00;101644.75;5026056;28;20616;-90
2023/09/08 07:21:39;;;;;;;23.27;13.27;;;;;;;22.40;100.00;101642.06;5029106;28;20048;-90
2023/09/08 07:24:05;;;;;;;19.27;12.88;;;;;;;22.58;99.36;101642.91;5025854;28;20102;-87
2023/09/08 07:26:31;;;;;;;16.48;12.77;;;;;;;22.66;95.86;101650.28;5027209;28;20038;-89
2023/09/08 07:28:59;;;;;;;23.65;13.70;;;;;;;22.70;96.11;101651.69;5040149;28;20597;-87
2023/09/08 07:31:28;;;;;;;17.92;12.25;;;;;;;22.84;95.91;101644.81;5041915;28;20128;-88
2023/09/08 07:33:54;;;;;;;18.80;13.15;;;;;;;23.07;96.59;101650.66;5046815;28;20068;-88
2023/09/08 07:36:21;;;;;;;19.05;13.15;;;;;;;23.26;95.56;101648.56;5020787;28;20461;-91
2023/09/08 07:38:46;;;;;;;17.63;12.73;;;;;;;23.12;92.49;101651.88;5025817;28;20037;-88
2023/09/08 07:41:12;;;;;;;22.05;13.48;;;;;;;23.18;90.47;101647.66;5025720;28;20038;-88
2023/09/08 07:43:40;;;;;;;16.83;12.05;;;;;;;23.30;90.90;101650.97;5005469;28;20038;-88
2023/09/08 07:46:08;;;;;;;19.35;12.27;;;;;;;23.66;92.20;101644.41;5008423;28;20033;-90
2023/09/08 07:48:34;;;;;;;18.77;12.52;;;;;;;23.57;89.33;101636.31;5017393;28;20202;-90
2023/09/08 07:51:02;;;;;;;18.33;11.90;;;;;;;23.70;88.61;101637.63;4996910;28;20340;-88
2023/09/08 07:53:28;;;;;;;17.33;12.45;;;;;;;23.96;87.62;101632.09;5022078;28;20037;-89
2023/09/08 07:55:54;;;;;;;18.25;12.70;;;;;;;24.15;87.23;101633.69;5029884;28;20044;-88
2023/09/08 07:58:19;;;;;;;16.55;11.85;;;;;;;24.69;86.99;101630.53;5004668;28;20048;-89
2023/09/08 08:00:46;;;;;;;24.50;13.05;;;;;;;24.69;84.96;101625.91;5013327;28;20068;-91
2023/09/08 08:03:11;;;;;;;18.05;12.35;;;;;;;24.48;84.02;101620.13;5019970;28;20045;-89
2023/09/08 08:05:37;;;;;;;18.60;12.73;;;;;;;24.35;81.05;101636.09;5039541;28;20033;-90
2023/09/08 08:08:03;;;;;;;22.00;13.05;;;;;;;24.36;82.85;101626.94;5020382;28;20040;-90
2023/09/08 08:10:28;;;;;;;19.75;11.57;;;;;;;24.59;84.64;101624.38;5017755;28;20049;-89
2023/09/08 08:12:54;;;;;;;15.60;11.10;;;;;;;24.51;83.29;101625.25;5009033;28;20100;-88
2023/09/08 08:15:26;;;;;;;18.60;12.10;;;;;;;24.01;84.13;101627.00;5034583;28;20437;-91
2023/09/08 08:17:52;;;;;;;19.67;12.88;;;;;;;24.01;85.54;101624.28;5021014;28;20054;-90
2023/09/08 08:20:17;;;;;;;18.50;12.48;;;;;;;24.15;89.08;101624.66;5020013;28;20044;-89
2023/09/08 08:22:46;;;;;;;19.42;12.55;;;;;;;24.17;88.89;101630.78;5034733;28;20073;-89
2023/09/08 08:25:12;;;;;;;19.00;12.25;;;;;;;24.26;87.69;101629.78;5003252;28;20109;-89
2023/09/08 08:27:40;;;;;;;15.90;12.18;;;;;;;24.14;85.44;101633.81;5019482;28;20038;-91
2023/09/08 08:30:06;;;;;;;17.65;11.38;;;;;;;24.08;85.95;101639.94;5004982;28;20542;-90
2023/09/08 08:32:33;;;;;;;15.57;11.93;;;;;;;24.15;85.08;101636.41;5005954;28;20535;-89
2023/09/08 08:34:59;;;;;;;22.50;12.88;;;;;;;24.14;84.23;101642.00;5014276;28;20821;-87
2023/09/08 08:37:25;;;;;;;15.57;11.75;;;;;;;24.15;86.76;101635.56;5039435;28;20092;-91
2023/09/08 08:39:52;;;;;;;18.05;13.10;;;;;;;24.05;87.15;101638.44;5002557;28;20061;-94
2023/09/08 08:42:22;;;;;;;18.83;12.40;;;;;;;24.08;86.59;101640.81;5007713;28;20065;-93
2023/09/08 08:44:47;;;;;;;19.20;12.10;;;;;;;24.22;85.76;101639.31;5027321;28;20041;-91
2023/09/08 08:47:15;;;;;;;20.88;12.70;;;;;;;24.10;85.82;101644.22;5017879;28;20037;-89
2023/09/08 08:49:46;;;;;;;15.77;10.77;;;;;;;24.21;88.29;101649.38;5030352;28;20102;-91
2023/09/08 08:52:14;;;;;;;16.90;12.00;;;;;;;24.35;86.28;101641.53;5012193;28;20042;-94
2023/09/08 08:54:42;;;;;;;12.60;8.63;;;;;;;24.69;84.67;101638.72;4990314;28;20617;-93
2023/09/08 08:57:08;;;;;;;16.67;11.45;;;;;;;24.76;84.72;101639.75;5020428;28;20033;-90
2023/09/08 08:59:35;;;;;;;15.32;10.48;;;;;;;24.89;83.32;101641.94;5021176;28;20045;-91
2023/09/08 09:02:03;;;;;;;17.05;11.10;;;;;;;24.85;86.30;101635.13;5021353;28;20052;-92
2023/09/08 09:04:32;;;;;;;20.65;12.05;;;;;;;24.84;85.22;101637.00;5020106;28;20124;-90
2023/09/08 09:06:58;;;;;;;18.48;10.93;;;;;;;24.92;83.91;101636.16;5019680;28;20045;-91
2023/09/08 09:09:25;;;;;;;16.77;11.13;;;;;;;24.77;84.07;101634.13;5022755;28;20036;-89
2023/09/08 09:11:51;;;;;;;13.52;9.93;;;;;;;24.98;85.16;101630.84;5036821;28;20756;-92
2023/09/08 09:14:19;;;;;;;12.07;10.77;;;;;;;24.92;83.15;101631.56;5014624;28;20133;-91
2023/09/08 09:16:47;;;;;;;15.32;11.52;;;;;;;24.96;84.46;101635.66;5005665;28;20912;-91
2023/09/08 09:19:27;;;;;;;14.55;11.05;;;;;;;24.99;83.70;101627.09;5042696;28;20034;-89
2023/09/08 09:21:54;;;;;;;15.77;11.20;;;;;;;25.17;83.10;101623.38;5024199;28;20039;-93
2023/09/08 09:24:36;;;;;;;14.35;10.63;;;;;;;25.36;86.00;101630.31;5035246;28;20042;-90
2023/09/08 09:27:06;;;;;;;13.90;10.63;;;;;;;25.30;81.90;101618.19;5023135;28;20033;-93
2023/09/08 09:29:33;;;;;;;14.57;11.38;;;;;;;25.33;84.08;101625.19;5021441;28;20029;-93
2023/09/08 09:32:09;;;;;;;22.50;11.57;;;;;;;25.41;81.14;101625.19;5011398;28;20092;-91
2023/09/08 09:34:35;;;;;;;15.43;10.82;;;;;;;25.57;85.93;101622.41;5036306;28;20577;-91
2023/09/08 09:37:01;;;;;;;13.52;11.23;;;;;;;25.53;83.65;101629.22;5023784;28;20064;-92
2023/09/08 09:39:27;;;;;;;19.00;11.38;;;;;;;25.38;81.96;101629.09;5024080;28;20030;-89
2023/09/08 09:41:57;;;;;;;15.82;11.00;;;;;;;25.73;82.43;101626.94;5009898;28;20037;-91
2023/09/08 09:44:25;;;;;;;16.15;9.90;;;;;;;25.78;85.27;101627.28;5036410;28;20097;-89
2023/09/08 09:46:52;;;;;;;14.45;9.63;;;;;;;25.74;81.84;101620.44;5042791;28;20030;-94
2023/09/08 09:49:19;;;;;;;13.75;10.25;;;;;;;25.88;81.53;101617.00;5008411;28;20100;-94
2023/09/08 09:51:50;;;;;;;13.85;10.45;;;;;;;25.69;79.56;101626.44;5017552;28;20542;-91
2023/09/08 09:54:17;;;;;;;21.38;9.93;;;;;;;26.06;81.59;101623.06;5022691;28;20498;-94
2023/09/08 09:56:47;;;;;;;22.27;10.50;;;;;;;26.09;81.85;101627.28;5002775;28;20038;-88
2023/09/08 09:59:15;;;;;;;14.90;9.65;;;;;;;26.22;81.07;101615.78;5015196;28;20849;-89
2023/09/08 10:01:43;;;;;;;13.38;9.27;;;;;;;26.27;81.54;101614.19;5041749;28;20037;-91
2023/09/08 10:04:09;;;;;;;14.07;8.90;;;;;;;26.43;80.24;101623.34;5019549;28;20128;-93
2023/09/08 10:06:36;;;;;;;14.75;11.05;;;;;;;26.34;77.07;101617.03;5022919;28;20041;-89
2023/09/08 10:09:13;;;;;;;17.95;10.35;;;;;;;26.41;80.60;101615.31;5026949;28;20052;-92
2023/09/08 10:11:47;;;;;;;13.85;10.40;;;;;;;26.49;77.70;101601.56;5018036;28;20117;-92
2023/09/08 10:14:17;;;;;;;18.45;9.68;;;;;;;26.59;78.91;101602.19;5011934;28;20072;-89
2023/09/08 10:16:52;;;;;;;13.73;9.50;;;;;;;26.57;78.50;101603.41;5045794;28;20032;-88
2023/09/08 10:19:23;;;;;;;16.38;10.45;;;;;;;26.70;78.78;101605.50;5017615;28;20038;-91
2023/09/08 10:21:53;;;;;;;16.83;10.57;;;;;;;26.73;77.63;101603.25;5006971;28;20041;-91
2023/09/08 10:24:24;;;;;;;13.77;9.52;;;;;;;26.91;78.27;101611.16;5008546;28;20045;-93
2023/09/08 10:27:10;;;;;;;14.82;9.20;;;;;;;26.84;78.73;101607.44;5017633;28;20034;-92
2023/09/08 10:29:37;;;;;;;17.80;9.18;;;;;;;26.79;77.83;101612.63;5028309;28;20065;-90
2023/09/08 10:32:04;;;;;;;11.75;8.93;;;;;;;27.05;75.86;101606.72;5035812;28;20061;-89
2023/09/08 10:34:34;;;;;;;13.27;9.23;;;;;;;26.78;75.63;101608.19;5019760;28;20029;-88
2023/09/08 10:37:00;;;;;;;12.98;9.02;;;;;;;27.06;75.47;101603.81;5042318;28;20041;-90
2023/09/08 10:39:38;;;;;;;14.77;8.95;;;;;;;27.19;75.14;101605.06;5008255;28;20038;-90
2023/09/08 10:42:17;;;;;;;13.05;8.35;;;;;;;27.20;75.40;101604.88;5017251;28;20069;-90
2023/09/08 10:44:51;;;;;;;11.10;8.05;;;;;;;27.41;74.88;101598.66;4996146;28;20054;-90
2023/09/08 10:47:41;;;;;;;10.10;8.43;;;;;;;27.42;73.61;101597.63;5025617;28;20116;-89
2023/09/08 10:50:15;;;;;;;12.07;7.90;;;;;;;27.41;75.24;101604.16;5029078;28;20065;-89
2023/09/08 10:52:44;;;;;;;15.95;9.00;;;;;;;27.35;74.50;101600.25;5048297;28;20040;-89
2023/09/08 10:55:14;;;;;;;12.55;7.90;;;;;;;27.25;73.00;101599.69;5054369;28;20165;-90
2023/09/08 10:57:45;;;;;;;12.77;8.50;;;;;;;27.52;74.68;101603.66;5040067;28;20041;-88
2023/09/08 11:00:17;;;;;;;10.60;7.90;;;;;;;27.75;80.50;101599.97;5016874;28;20652;-92
2023/09/08 11:02:55;;;;;;;8.73;7.68;;;;;;;27.85;74.77;101600.50;5020890;28;20042;-88
2023/09/08 11:05:21;;;;;;;15.88;8.32;;;;;;;27.88;74.32;101606.47;5011627;28;20037;-93
2023/09/08 11:07:52;;;;;;;14.15;8.95;;;;;;;27.66;72.76;101593.69;5047305;28;20036;-88